Time;durP1;ratioP1;P1;durP2;ratioP2;P2;SDS_P1;SDS_P2;PMS_P1;PMS_P2;Temp;Humidity;BMP_temperature;BMP_pressure;BME280_temperature;BME280_humidity;BME280_pressure;Samples;Min_cycle;Max_cycle;Signal;HPM_P1;HPM_P2
2023/01/04 00:00:29;;;;;;;6.17;3.80;;;;;;;1.74;100.00;101956.28;4941163;28;20830;-74
2023/01/04 00:02:55;;;;;;;6.20;4.03;;;;;;;1.70;100.00;101951.03;4936203;28;20546;-73
2023/01/04 00:05:21;;;;;;;5.10;3.87;;;;;;;1.69;100.00;101945.88;4936488;29;20486;-72
2023/01/04 00:07:48;;;;;;;4.70;3.77;;;;;;;1.76;100.00;101949.50;4934332;29;20222;-74
2023/01/04 00:10:15;;;;;;;6.53;4.40;;;;;;;1.73;100.00;101949.44;4938014;29;20855;-73
2023/01/04 00:12:42;;;;;;;5.57;4.07;;;;;;;1.70;100.00;101942.47;4937061;29;20255;-73
2023/01/04 00:15:09;;;;;;;4.00;3.37;;;;;;;1.68;100.00;101945.00;4935306;29;20688;-73
2023/01/04 00:17:36;;;;;;;6.73;4.20;;;;;;;1.66;100.00;101949.22;4942358;28;20222;-73
2023/01/04 00:20:02;;;;;;;5.00;3.90;;;;;;;1.60;100.00;101933.59;4945953;29;21586;-72
2023/01/04 00:22:28;;;;;;;4.33;3.57;;;;;;;1.58;100.00;101929.22;4943986;29;20187;-73
2023/01/04 00:24:55;;;;;;;6.07;4.20;;;;;;;1.56;100.00;101918.88;4941730;29;20675;-73
2023/01/04 00:27:22;;;;;;;5.07;3.80;;;;;;;1.57;100.00;101910.38;4949353;29;20403;-73
2023/01/04 00:29:49;;;;;;;6.70;4.60;;;;;;;1.54;100.00;101914.53;4943831;28;20199;-73
2023/01/04 00:32:15;;;;;;;7.97;4.30;;;;;;;1.58;100.00;101904.38;4945128;28;20731;-73
2023/01/04 00:34:42;;;;;;;4.67;3.40;;;;;;;1.54;100.00;101902.56;4942144;29;20199;-76
2023/01/04 00:37:08;;;;;;;6.00;3.90;;;;;;;1.52;100.00;101896.50;4944539;29;20238;-73
2023/01/04 00:39:35;;;;;;;6.57;3.73;;;;;;;1.50;100.00;101900.72;4942767;29;20203;-73
2023/01/04 00:42:04;;;;;;;5.47;3.90;;;;;;;1.49;100.00;101884.41;4941164;29;21375;-73
2023/01/04 00:44:34;;;;;;;5.33;3.77;;;;;;;1.54;100.00;101888.84;4944958;28;20205;-73
2023/01/04 00:47:01;;;;;;;7.10;3.73;;;;;;;1.60;100.00;101886.44;4943254;28;20282;-73
2023/01/04 00:49:29;;;;;;;11.33;3.70;;;;;;;1.61;100.00;101886.50;4952443;28;20315;-72
2023/01/04 00:51:55;;;;;;;4.67;3.30;;;;;;;1.62;100.00;101879.63;4946187;29;20221;-72
2023/01/04 00:54:22;;;;;;;6.30;3.40;;;;;;;1.65;100.00;101877.16;4944950;29;20675;-72
2023/01/04 00:56:49;;;;;;;4.23;3.40;;;;;;;1.60;100.00;101877.03;4938902;28;20218;-73
2023/01/04 00:59:17;;;;;;;4.23;3.10;;;;;;;1.61;100.00;101875.34;4947606;29;20207;-73
2023/01/04 01:01:46;;;;;;;4.60;3.20;;;;;;;1.61;100.00;101871.06;4943802;29;20203;-73
2023/01/04 01:04:15;;;;;;;4.60;3.50;;;;;;;1.62;100.00;101865.09;4941093;29;20235;-72
2023/01/04 01:06:41;;;;;;;6.87;3.80;;;;;;;1.60;100.00;101871.91;4942172;28;20222;-73
2023/01/04 01:09:08;;;;;;;5.93;3.50;;;;;;;1.62;100.00;101870.25;4944779;28;20191;-75
2023/01/04 01:11:37;;;;;;;6.57;3.47;;;;;;;1.64;100.00;101867.72;4941101;29;20211;-76
2023/01/04 01:14:04;;;;;;;4.93;3.67;;;;;;;1.67;100.00;101862.66;4942990;29;20260;-76
2023/01/04 01:16:30;;;;;;;4.33;3.10;;;;;;;1.72;100.00;101871.38;4938988;29;20227;-76
2023/01/04 01:18:58;;;;;;;4.97;3.70;;;;;;;1.75;100.00;101855.19;4943210;29;20210;-74
2023/01/04 01:21:28;;;;;;;5.50;3.77;;;;;;;1.73;100.00;101859.41;4940451;28;20199;-75
2023/01/04 01:23:55;;;;;;;4.33;2.87;;;;;;;1.68;100.00;101855.00;4941538;29;20212;-75
2023/01/04 01:26:24;;;;;;;6.30;3.90;;;;;;;1.65;100.00;101848.88;4941972;28;20225;-75
2023/01/04 01:28:51;;;;;;;7.07;3.80;;;;;;;1.64;100.00;101852.31;4941896;29;20207;-75
2023/01/04 01:31:19;;;;;;;8.83;3.63;;;;;;;1.65;100.00;101836.03;4943454;29;20215;-74
2023/01/04 01:33:48;;;;;;;4.73;3.80;;;;;;;1.72;100.00;101837.09;4935295;29;20198;-73
2023/01/04 01:36:18;;;;;;;5.90;3.70;;;;;;;1.73;100.00;101837.13;4933366;29;20225;-72
2023/01/04 01:38:45;;;;;;;5.13;3.13;;;;;;;1.66;100.00;101830.06;4935963;28;20591;-72
2023/01/04 01:41:18;;;;;;;4.53;3.37;;;;;;;1.64;100.00;101830.03;4940259;28;20206;-73
2023/01/04 01:43:48;;;;;;;4.47;3.13;;;;;;;1.64;100.00;101829.16;4941979;29;20233;-72
2023/01/04 01:46:17;;;;;;;4.17;2.83;;;;;;;1.70;100.00;101826.75;4943971;29;20230;-73
2023/01/04 01:48:45;;;;;;;5.60;3.33;;;;;;;1.63;100.00;101820.56;4942611;28;20213;-73
2023/01/04 01:51:11;;;;;;;3.77;2.83;;;;;;;1.59;100.00;101817.88;4941010;29;20226;-73
2023/01/04 01:53:43;;;;;;;4.70;3.60;;;;;;;1.58;100.00;101809.25;4942980;29;20438;-73
2023/01/04 01:56:10;;;;;;;4.23;3.17;;;;;;;1.57;100.00;101817.81;4940621;29;20234;-73
2023/01/04 01:58:41;;;;;;;6.23;3.20;;;;;;;1.54;100.00;101820.28;4941126;29;20209;-72
2023/01/04 02:01:08;;;;;;;4.03;2.87;;;;;;;1.52;100.00;101812.53;4938176;29;20199;-72
2023/01/04 02:03:37;;;;;;;3.87;3.17;;;;;;;1.56;100.00;101810.91;4941084;28;20207;-73
2023/01/04 02:06:07;;;;;;;7.10;3.30;;;;;;;1.55;100.00;101810.88;4943045;29;20313;-72
2023/01/04 02:08:33;;;;;;;6.77;3.70;;;;;;;1.55;100.00;101806.63;4942437;29;20199;-73
2023/01/04 02:11:01;;;;;;;4.80;3.50;;;;;;;1.59;100.00;101799.88;4932614;29;20616;-72
2023/01/04 02:16:20;;;;;;;4.77;3.30;;;;;;;1.61;100.00;101806.78;4945246;29;20599;-73
2023/01/04 02:18:54;;;;;;;6.83;3.10;;;;;;;1.66;100.00;101802.66;4934590;28;20206;-73
2023/01/04 02:21:29;;;;;;;5.87;3.03;;;;;;;1.61;100.00;101798.22;4939683;28;20202;-72
2023/01/04 02:24:16;;;;;;;4.03;3.00;;;;;;;1.62;100.00;101808.53;4939859;29;20212;-73
2023/01/04 02:27:13;;;;;;;4.83;2.83;;;;;;;1.64;100.00;101806.88;4942273;29;20711;-74
2023/01/04 02:30:05;;;;;;;5.17;2.57;;;;;;;1.63;100.00;101805.13;4951909;29;20209;-75
2023/01/04 02:32:45;;;;;;;5.07;2.83;;;;;;;1.65;100.00;101802.59;4930442;29;20834;-75
2023/01/04 02:35:21;;;;;;;6.87;2.87;;;;;;;1.61;100.00;101791.38;4941402;29;20207;-74
2023/01/04 02:37:53;;;;;;;4.13;2.80;;;;;;;1.61;100.00;101785.34;4938915;28;20233;-76
2023/01/04 02:40:28;;;;;;;4.83;2.87;;;;;;;1.57;100.00;101784.41;4961588;28;20244;-73
2023/01/04 02:45:52;;;;;;;4.00;2.77;;;;;;;1.57;100.00;101774.13;4942922;29;20205;-72
2023/01/04 02:51:04;;;;;;;4.93;3.07;;;;;;;1.47;100.00;101772.97;4943276;29;20208;-75
2023/01/04 02:53:34;;;;;;;4.70;2.50;;;;;;;1.40;100.00;101763.31;4937238;29;20203;-73
2023/01/04 02:56:13;;;;;;;5.47;2.63;;;;;;;1.34;100.00;101755.44;4939468;29;20210;-75
2023/01/04 02:59:05;;;;;;;3.53;2.63;;;;;;;1.33;100.00;101753.69;4935773;29;20264;-75
2023/01/04 03:07:31;;;;;;;5.90;3.20;;;;;;;1.15;100.00;101746.31;4943386;29;20228;-75
2023/01/04 03:10:02;;;;;;;5.87;2.80;;;;;;;1.13;100.00;101742.81;4940296;29;20244;-74
2023/01/04 03:12:30;;;;;;;3.47;2.57;;;;;;;1.10;100.00;101732.44;4939067;28;20224;-75
2023/01/04 03:15:01;;;;;;;3.47;2.60;;;;;;;1.11;100.00;101729.06;4941649;29;20580;-75
2023/01/04 03:17:33;;;;;;;5.83;2.53;;;;;;;1.11;100.00;101726.50;4939098;29;20227;-75
2023/01/04 03:20:03;;;;;;;3.77;2.30;;;;;;;1.12;100.00;101705.97;4938414;28;20206;-75
2023/01/04 03:36:45;;;;;;;2.97;1.83;;;;;;;1.35;100.00;101666.38;4940164;29;20265;-75
2023/01/04 03:50:49;;;;;;;5.37;2.90;;;;;;;1.33;100.00;101635.47;4941766;28;20213;-75
2023/01/04 03:53:17;;;;;;;9.33;2.63;;;;;;;1.31;100.00;101632.88;4947101;29;20313;-74
2023/01/04 03:55:45;;;;;;;6.27;2.33;;;;;;;1.31;100.00;101634.56;4948714;29;20194;-75
2023/01/04 03:58:12;;;;;;;4.03;2.43;;;;;;;1.30;100.00;101644.00;4941843;29;20223;-75
2023/01/04 04:00:38;;;;;;;5.63;2.30;;;;;;;1.27;100.00;101641.34;4941536;29;20202;-75
2023/01/04 04:03:11;;;;;;;2.70;2.43;;;;;;;1.28;100.00;101642.19;4942002;28;20217;-75
2023/01/04 04:08:28;;;;;;;2.67;2.17;;;;;;;1.15;100.00;101635.84;4957685;28;20221;-75
2023/01/04 04:10:56;;;;;;;7.90;2.50;;;;;;;1.13;100.00;101624.66;4945083;29;20594;-75
2023/01/04 04:13:23;;;;;;;3.50;2.37;;;;;;;1.13;100.00;101624.66;4940847;29;20664;-75
2023/01/04 04:15:51;;;;;;;4.43;2.40;;;;;;;1.13;100.00;101614.38;4944271;28;20204;-75
2023/01/04 04:18:18;;;;;;;3.20;1.80;;;;;;;1.07;100.00;101603.91;4945436;28;20199;-75
2023/01/04 04:20:44;;;;;;;2.57;1.90;;;;;;;1.04;100.00;101598.69;4946758;28;20195;-75
2023/01/04 04:23:10;;;;;;;6.27;2.50;;;;;;;1.00;100.00;101599.44;4947496;28;20689;-74
2023/01/04 04:25:38;;;;;;;6.10;2.10;;;;;;;0.95;100.00;101591.63;4934602;29;20210;-75
2023/01/04 04:28:05;;;;;;;3.73;2.63;;;;;;;0.96;100.00;101588.22;4943996;29;20241;-75
2023/01/04 04:30:32;;;;;;;3.60;2.53;;;;;;;0.95;100.00;101578.78;4957199;28;20207;-75
2023/01/04 04:32:58;;;;;;;5.70;2.67;;;;;;;0.96;100.00;101577.06;4941750;29;20215;-75
2023/01/04 04:35:24;;;;;;;2.77;2.13;;;;;;;0.97;100.00;101571.09;4937501;28;20207;-75
2023/01/04 04:37:51;;;;;;;7.37;2.63;;;;;;;0.94;100.00;101561.63;4946820;28;20240;-75
2023/01/04 04:43:02;;;;;;;4.60;2.60;;;;;;;0.97;100.00;101547.97;4943102;29;20210;-75
2023/01/04 04:45:30;;;;;;;2.90;2.03;;;;;;;0.96;100.00;101546.25;4942376;29;20561;-75
2023/01/04 04:47:56;;;;;;;9.20;2.60;;;;;;;0.93;100.00;101540.22;4935744;29;20773;-75
2023/01/04 04:50:23;;;;;;;3.70;2.37;;;;;;;0.93;100.00;101547.03;4949676;29;20207;-75
2023/01/04 04:52:49;;;;;;;3.17;2.37;;;;;;;0.93;100.00;101553.06;4947770;28;20230;-75
2023/01/04 04:55:15;;;;;;;3.07;2.00;;;;;;;0.90;100.00;101552.09;4948772;29;20211;-75
2023/01/04 04:57:42;;;;;;;3.23;2.17;;;;;;;0.92;100.00;101553.00;4945489;29;20219;-75
2023/01/04 05:00:11;;;;;;;3.63;2.00;;;;;;;0.90;100.00;101550.38;4945000;29;20222;-75
2023/01/04 05:02:37;;;;;;;6.43;2.23;;;;;;;0.90;100.00;101544.41;4943345;28;20209;-75
2023/01/04 05:05:05;;;;;;;3.27;2.07;;;;;;;0.91;100.00;101546.97;4941586;28;20221;-75
2023/01/04 05:07:31;;;;;;;2.63;2.17;;;;;;;0.90;100.00;101527.28;4947046;28;20219;-75
2023/01/04 05:09:58;;;;;;;4.27;2.90;;;;;;;0.87;100.00;101524.63;4943644;29;20210;-75
2023/01/04 05:15:10;;;;;;;5.63;2.70;;;;;;;0.89;100.00;101514.41;4946553;28;20213;-75
2023/01/04 05:17:37;;;;;;;3.97;2.20;;;;;;;0.93;100.00;101511.97;4949029;28;20253;-76
2023/01/04 05:20:04;;;;;;;4.23;2.33;;;;;;;1.00;100.00;101505.28;4934968;28;20547;-75
2023/01/04 05:22:31;;;;;;;5.77;2.50;;;;;;;1.02;100.00;101507.88;4940708;28;20532;-75
2023/01/04 05:24:57;;;;;;;3.77;2.60;;;;;;;1.08;100.00;101503.78;4937781;28;20209;-74
2023/01/04 05:27:23;;;;;;;4.37;2.53;;;;;;;1.15;100.00;101494.56;4937432;28;20215;-75
2023/01/04 05:32:35;;;;;;;3.67;2.83;;;;;;;1.19;100.00;101478.38;4943235;28;20226;-75
2023/01/04 05:35:01;;;;;;;3.70;2.53;;;;;;;1.18;100.00;101468.97;4941667;28;20195;-74
2023/01/04 05:37:28;;;;;;;3.10;2.53;;;;;;;1.15;100.00;101463.72;4945873;28;20294;-74
2023/01/04 05:39:54;;;;;;;5.67;2.63;;;;;;;1.15;100.00;101463.72;4941183;28;20211;-75
2023/01/04 05:42:27;;;;;;;5.40;3.07;;;;;;;1.17;100.00;101454.34;4941835;29;20208;-74
2023/01/04 05:44:54;;;;;;;4.33;3.00;;;;;;;1.18;100.00;101456.09;4953407;28;20269;-74
2023/01/04 05:47:21;;;;;;;6.00;3.00;;;;;;;1.22;100.00;101439.94;4943433;29;20224;-74
2023/01/04 05:49:49;;;;;;;5.90;3.33;;;;;;;1.23;100.00;101441.69;4939065;29;20194;-74
2023/01/04 05:52:16;;;;;;;5.07;3.27;;;;;;;1.24;100.00;101433.13;4938979;29;20371;-75
2023/01/04 05:54:42;;;;;;;4.07;2.93;;;;;;;1.29;100.00;101430.69;4938961;28;20203;-74
2023/01/04 05:57:09;;;;;;;8.90;2.90;;;;;;;1.31;100.00;101429.00;4939117;28;20591;-75
2023/01/04 05:59:36;;;;;;;3.33;2.90;;;;;;;1.36;100.00;101413.72;4932662;29;20210;-75
2023/01/04 06:02:03;;;;;;;5.00;3.27;;;;;;;1.37;100.00;101426.59;4931365;28;20370;-74
2023/01/04 06:04:29;;;;;;;5.47;3.20;;;;;;;1.41;100.00;101419.84;4932574;28;20223;-75
2023/01/04 06:06:57;;;;;;;5.03;3.30;;;;;;;1.42;100.00;101414.72;4940671;29;20605;-75
2023/01/04 06:09:26;;;;;;;5.57;3.87;;;;;;;1.43;100.00;101415.59;4936692;29;20204;-75
2023/01/04 06:11:52;;;;;;;5.27;4.00;;;;;;;1.44;100.00;101410.50;4941051;29;20210;-75
2023/01/04 06:14:18;;;;;;;5.30;3.77;;;;;;;1.45;100.00;101401.94;4940822;29;20229;-75
2023/01/04 06:16:45;;;;;;;7.00;3.60;;;;;;;1.51;100.00;101396.06;4932356;29;20230;-75
2023/01/04 06:19:11;;;;;;;5.90;4.13;;;;;;;1.49;100.00;101393.47;4942269;29;20214;-74
2023/01/04 06:21:38;;;;;;;5.83;3.90;;;;;;;1.52;100.00;101385.84;4936912;29;20503;-75
2023/01/04 06:24:06;;;;;;;7.53;4.00;;;;;;;1.56;100.00;101384.19;4942871;28;20202;-75
2023/01/04 06:26:32;;;;;;;12.97;7.50;;;;;;;1.56;100.00;101373.91;4940288;28;20233;-75
2023/01/04 06:28:59;;;;;;;5.73;4.47;;;;;;;1.59;100.00;101381.72;4944864;28;20199;-75
2023/01/04 06:31:25;;;;;;;10.27;5.23;;;;;;;1.61;100.00;101366.31;4939920;28;20213;-76
2023/01/04 06:33:51;;;;;;;8.23;5.03;;;;;;;1.61;100.00;101359.47;4936397;28;20223;-74
2023/01/04 06:36:18;;;;;;;8.97;5.40;;;;;;;1.63;100.00;101349.22;4931805;29;20230;-74
2023/01/04 06:38:44;;;;;;;9.77;5.90;;;;;;;1.65;100.00;101343.28;4939579;29;20207;-75
2023/01/04 06:41:12;;;;;;;9.53;6.33;;;;;;;1.70;100.00;101330.53;4942813;29;20202;-74
2023/01/04 06:43:38;;;;;;;21.70;10.10;;;;;;;1.84;100.00;101331.69;4943248;28;20210;-75
2023/01/04 06:46:04;;;;;;;21.07;11.13;;;;;;;1.88;100.00;101330.03;4939924;29;20448;-75
2023/01/04 06:48:31;;;;;;;9.17;6.17;;;;;;;1.90;100.00;101330.97;4942013;28;20659;-75
2023/01/04 06:50:57;;;;;;;7.80;4.70;;;;;;;1.98;100.00;101324.25;4934523;28;20192;-74
2023/01/04 06:53:23;;;;;;;6.97;4.67;;;;;;;2.06;100.00;101316.72;4935834;28;20604;-75
2023/01/04 06:55:50;;;;;;;5.83;4.33;;;;;;;2.11;100.00;101320.25;4937951;29;20263;-75
2023/01/04 06:58:18;;;;;;;5.93;4.17;;;;;;;2.15;100.00;101314.31;4942310;28;20218;-75
2023/01/04 07:00:45;;;;;;;7.13;3.87;;;;;;;2.21;100.00;101305.81;4940092;29;20195;-74
2023/01/04 07:03:11;;;;;;;6.63;4.33;;;;;;;2.27;100.00;101305.97;4939133;28;20317;-75
2023/01/04 07:05:38;;;;;;;7.03;4.20;;;;;;;2.34;100.00;101306.91;4941931;29;20211;-74
2023/01/04 07:08:04;;;;;;;7.53;4.30;;;;;;;2.40;100.00;101297.59;4939823;28;20227;-75
2023/01/04 07:10:31;;;;;;;7.87;4.50;;;;;;;2.43;100.00;101296.81;4934871;28;20269;-74
2023/01/04 07:12:57;;;;;;;8.37;5.10;;;;;;;2.47;100.00;101283.16;4937760;29;20214;-74
2023/01/04 07:15:25;;;;;;;11.97;5.57;;;;;;;2.50;100.00;101283.22;4942099;29;20210;-74
2023/01/04 07:17:51;;;;;;;8.40;5.30;;;;;;;2.54;100.00;101277.25;4942839;29;20278;-74
2023/01/04 07:20:17;;;;;;;8.03;5.10;;;;;;;2.58;100.00;101270.47;4938461;28;20211;-74
2023/01/04 07:22:44;;;;;;;5.83;4.53;;;;;;;2.62;100.00;101274.81;4937028;29;20215;-75
2023/01/04 07:25:10;;;;;;;7.43;4.83;;;;;;;2.62;100.00;101267.09;4941093;29;20202;-75
2023/01/04 07:27:36;;;;;;;8.03;5.60;;;;;;;2.65;100.00;101259.41;4941003;29;20218;-75
2023/01/04 07:30:03;;;;;;;8.73;5.20;;;;;;;2.68;100.00;101256.03;4938143;29;20216;-75
2023/01/04 07:32:31;;;;;;;6.67;4.20;;;;;;;2.67;100.00;101247.44;4942617;29;20198;-75
2023/01/04 07:34:58;;;;;;;12.83;6.00;;;;;;;2.68;100.00;101244.03;4941578;29;20200;-75
2023/01/04 07:37:24;;;;;;;8.40;4.63;;;;;;;2.68;100.00;101240.59;4939746;29;20655;-75
2023/01/04 07:39:50;;;;;;;8.03;5.10;;;;;;;2.70;100.00;101238.91;4939429;28;20670;-75
2023/01/04 07:42:17;;;;;;;5.77;4.73;;;;;;;2.70;100.00;101241.47;4937427;29;20227;-75
2023/01/04 07:44:44;;;;;;;7.90;4.60;;;;;;;2.77;100.00;101239.00;4942955;29;20199;-75
2023/01/04 07:47:11;;;;;;;8.13;4.77;;;;;;;2.79;100.00;101245.03;4940559;29;20349;-74
2023/01/04 07:49:41;;;;;;;8.83;5.03;;;;;;;2.83;100.00;101235.66;4941994;29;20203;-73
2023/01/04 07:52:07;;;;;;;7.00;3.53;;;;;;;2.87;100.00;101234.88;4931348;29;20213;-73
2023/01/04 07:54:34;;;;;;;4.93;3.73;;;;;;;2.92;100.00;101230.66;4936344;28;20230;-73
2023/01/04 07:57:00;;;;;;;4.77;3.70;;;;;;;2.99;100.00;101216.16;4943398;29;20273;-73
2023/01/04 07:59:26;;;;;;;7.07;3.50;;;;;;;3.05;100.00;101216.25;4935651;29;20360;-72
2023/01/04 08:01:53;;;;;;;6.27;3.83;;;;;;;3.12;100.00;101219.78;4936767;29;20217;-72
2023/01/04 08:04:23;;;;;;;5.47;3.90;;;;;;;3.17;100.00;101221.56;4937169;29;20649;-73
2023/01/04 08:06:50;;;;;;;5.20;3.53;;;;;;;3.23;100.00;101202.75;4939531;28;20222;-73
2023/01/04 08:09:17;;;;;;;5.63;3.83;;;;;;;3.32;100.00;101202.84;4939972;28;20207;-73
2023/01/04 08:11:44;;;;;;;9.33;3.90;;;;;;;3.39;100.00;101193.50;4942765;29;20293;-73
2023/01/04 08:14:11;;;;;;;7.97;3.67;;;;;;;3.51;100.00;101197.94;4937178;29;20211;-72
2023/01/04 08:16:39;;;;;;;6.57;3.70;;;;;;;3.56;100.00;101194.56;4933696;29;20236;-73
2023/01/04 08:19:07;;;;;;;6.43;3.20;;;;;;;3.63;100.00;101185.19;4938870;29;20207;-73
2023/01/04 08:21:35;;;;;;;6.20;3.47;;;;;;;3.70;100.00;101194.72;4939326;29;20208;-73
2023/01/04 08:24:04;;;;;;;4.93;3.20;;;;;;;3.76;100.00;101193.91;4939199;29;20201;-72
2023/01/04 08:26:31;;;;;;;4.70;3.27;;;;;;;3.80;100.00;101187.97;4939447;29;20631;-73
2023/01/04 08:28:57;;;;;;;4.33;3.27;;;;;;;3.89;100.00;101182.03;4938222;29;20270;-72
2023/01/04 08:31:26;;;;;;;5.00;3.07;;;;;;;3.95;100.00;101184.66;4937723;28;20206;-73
2023/01/04 08:33:53;;;;;;;5.03;3.60;;;;;;;4.03;100.00;101177.00;4937406;29;20216;-73
2023/01/04 08:36:21;;;;;;;7.03;3.53;;;;;;;4.03;100.00;101169.25;4944012;29;20222;-73
2023/01/04 08:38:49;;;;;;;4.43;3.23;;;;;;;4.08;100.00;101163.31;4940485;29;20202;-73
2023/01/04 08:41:18;;;;;;;4.30;2.97;;;;;;;4.09;100.00;101152.13;4940891;28;20205;-73
2023/01/04 08:43:45;;;;;;;4.33;2.90;;;;;;;4.10;100.00;101146.13;4937519;29;20206;-72
2023/01/04 08:46:13;;;;;;;3.83;2.90;;;;;;;4.15;100.00;101146.13;4949181;29;20226;-73
2023/01/04 08:48:40;;;;;;;6.70;3.60;;;;;;;4.17;100.00;101142.72;4940408;28;20664;-73
2023/01/04 08:51:08;;;;;;;6.70;3.60;;;;;;;4.22;100.00;101129.88;4937907;29;20588;-73
2023/01/04 08:53:35;;;;;;;6.13;3.57;;;;;;;4.27;100.00;101135.06;4940724;29;20224;-73
2023/01/04 08:56:02;;;;;;;8.60;3.00;;;;;;;4.31;100.00;101117.03;4937861;29;20218;-73
2023/01/04 08:58:32;;;;;;;4.93;3.50;;;;;;;4.38;100.00;101119.63;4942450;28;20206;-73
2023/01/04 09:00:59;;;;;;;4.47;2.50;;;;;;;4.38;100.00;101112.78;4948941;28;20607;-73
2023/01/04 09:03:26;;;;;;;3.60;2.70;;;;;;;4.42;100.00;101104.19;4949218;28;20210;-73
2023/01/04 09:05:52;;;;;;;8.47;3.00;;;;;;;4.44;100.00;101099.03;4946184;28;20207;-73
2023/01/04 09:08:19;;;;;;;5.30;2.43;;;;;;;4.45;100.00;101093.91;4941129;28;20257;-73
2023/01/04 09:10:45;;;;;;;4.03;2.43;;;;;;;4.46;100.00;101089.59;4942068;29;20718;-73
2023/01/04 09:13:11;;;;;;;4.20;2.87;;;;;;;4.46;100.00;101085.28;4947035;28;20228;-71
2023/01/04 09:15:39;;;;;;;2.93;2.17;;;;;;;4.46;100.00;101085.28;4942958;29;20215;-72
2023/01/04 09:18:06;;;;;;;4.50;2.60;;;;;;;4.47;100.00;101078.41;4939844;29;20318;-74
2023/01/04 09:20:33;;;;;;;3.77;2.57;;;;;;;4.48;100.00;101072.38;4944274;29;20210;-73
2023/01/04 09:22:59;;;;;;;2.93;1.97;;;;;;;4.49;100.00;101071.53;4943044;29;20763;-73
2023/01/04 09:25:25;;;;;;;4.87;2.43;;;;;;;4.49;100.00;101064.66;4940149;28;20687;-72
2023/01/04 09:27:52;;;;;;;4.03;2.17;;;;;;;4.51;100.00;101059.50;4944999;29;20227;-73
2023/01/04 09:30:18;;;;;;;3.53;2.23;;;;;;;4.53;100.00;101066.38;4947518;28;20262;-72
2023/01/04 09:32:46;;;;;;;11.77;5.73;;;;;;;4.55;100.00;101059.50;4945660;29;20206;-72
2023/01/04 09:35:13;;;;;;;8.23;4.10;;;;;;;4.55;100.00;101044.00;4949750;29;20214;-73
2023/01/04 09:37:39;;;;;;;5.30;2.93;;;;;;;4.57;100.00;101043.16;4943232;28;20233;-73
2023/01/04 09:40:07;;;;;;;7.27;3.60;;;;;;;4.55;100.00;101046.59;4942171;28;20229;-73
2023/01/04 09:42:37;;;;;;;5.60;3.17;;;;;;;4.56;100.00;101044.88;4940013;29;20196;-73
2023/01/04 09:45:15;;;;;;;3.87;2.13;;;;;;;4.56;100.00;101037.13;4941344;29;20215;-74
2023/01/04 09:47:45;;;;;;;7.73;3.50;;;;;;;4.54;100.00;101029.38;4935909;29;20234;-72
2023/01/04 09:50:21;;;;;;;4.90;3.33;;;;;;;4.58;100.00;101037.16;4943151;29;20210;-73
2023/01/04 09:52:55;;;;;;;5.53;3.10;;;;;;;4.60;100.00;101036.28;4944464;29;20214;-73
2023/01/04 09:55:26;;;;;;;4.53;2.10;;;;;;;4.62;100.00;101024.25;4949740;29;20222;-72
2023/01/04 09:57:57;;;;;;;2.00;1.60;;;;;;;4.66;100.00;101019.94;4943500;29;20219;-73
2023/01/04 10:00:28;;;;;;;2.70;1.50;;;;;;;4.70;100.00;101006.22;4943188;29;20749;-72
2023/01/04 10:03:03;;;;;;;3.27;1.93;;;;;;;4.71;100.00;100995.00;4942189;29;20594;-73
2023/01/04 10:05:33;;;;;;;3.27;2.03;;;;;;;4.72;100.00;100986.41;4940262;29;20217;-72
2023/01/04 10:07:59;;;;;;;4.63;2.30;;;;;;;4.76;100.00;100993.31;4937181;29;20250;-73
2023/01/04 10:10:43;;;;;;;2.90;1.90;;;;;;;4.77;100.00;101001.91;4938721;29;20740;-73
2023/01/04 10:13:20;;;;;;;1.87;1.63;;;;;;;4.77;100.00;100984.72;4943799;28;20207;-73
2023/01/04 10:15:56;;;;;;;1.97;1.37;;;;;;;4.74;100.00;100967.47;4940808;29;20211;-73
2023/01/04 10:18:35;;;;;;;2.33;1.70;;;;;;;4.77;100.00;100948.53;4935273;29;20207;-73
2023/01/04 10:21:20;;;;;;;3.60;1.90;;;;;;;4.78;100.00;100976.09;4936342;29;20584;-73
2023/01/04 10:24:04;;;;;;;3.20;1.27;;;;;;;4.78;100.00;100960.59;4941582;29;20206;-73
2023/01/04 10:26:37;;;;;;;2.27;1.50;;;;;;;4.82;100.00;100964.03;4941461;29;20222;-73
2023/01/04 10:29:23;;;;;;;1.40;1.30;;;;;;;4.80;100.00;100951.16;4939209;29;20196;-73
2023/01/04 10:31:55;;;;;;;2.67;1.60;;;;;;;4.81;100.00;100942.50;4938529;29;20294;-73
2023/01/04 10:34:25;;;;;;;2.10;1.63;;;;;;;4.82;100.00;100935.63;4938665;29;20589;-73
2023/01/04 10:36:57;;;;;;;2.70;2.00;;;;;;;4.85;100.00;100935.63;4935843;29;20238;-73
2023/01/04 10:39:27;;;;;;;1.97;1.50;;;;;;;4.85;100.00;100930.47;4940536;29;20202;-73
2023/01/04 10:41:56;;;;;;;1.60;1.50;;;;;;;4.83;100.00;100922.72;4936128;28;20202;-73
2023/01/04 10:44:32;;;;;;;2.20;1.60;;;;;;;4.83;100.00;100914.97;4938704;28;20731;-72
2023/01/04 10:47:07;;;;;;;2.10;1.33;;;;;;;4.82;100.00;100910.66;4933280;29;20238;-72
2023/01/04 10:49:41;;;;;;;3.30;1.70;;;;;;;4.82;100.00;100907.19;4937097;29;20198;-73
2023/01/04 10:52:13;;;;;;;1.97;1.40;;;;;;;4.83;100.00;100914.09;4940940;29;20209;-72
2023/01/04 10:54:47;;;;;;;2.50;1.53;;;;;;;4.81;100.00;100913.25;4937773;29;20218;-72
2023/01/04 10:57:21;;;;;;;1.40;1.20;;;;;;;4.83;100.00;100904.63;4933822;29;20241;-73
2023/01/04 10:59:56;;;;;;;6.77;4.00;;;;;;;4.83;100.00;100904.63;4936361;28;20293;-73
2023/01/04 11:02:31;;;;;;;2.60;1.90;;;;;;;4.85;100.00;100891.72;4939575;29;20559;-73
2023/01/04 11:05:02;;;;;;;1.40;1.30;;;;;;;4.88;100.00;100883.97;4940280;29;20695;-72
2023/01/04 11:07:39;;;;;;;3.03;1.50;;;;;;;4.92;100.00;100880.53;4946453;29;20223;-73
2023/01/04 11:10:10;;;;;;;2.90;1.50;;;;;;;4.96;100.00;100886.56;4939989;28;20285;-72
2023/01/04 11:12:36;;;;;;;1.73;1.40;;;;;;;4.98;100.00;100870.22;4940377;29;20199;-73
2023/01/04 11:15:03;;;;;;;3.63;1.50;;;;;;;5.02;100.00;100864.16;4937634;29;20218;-73
2023/01/04 11:17:31;;;;;;;1.77;1.40;;;;;;;5.07;100.00;100866.78;4941568;29;20215;-72
2023/01/04 11:19:58;;;;;;;2.70;1.37;;;;;;;5.12;100.00;100847.81;4934467;29;20215;-72
2023/01/04 11:22:30;;;;;;;2.03;1.33;;;;;;;5.18;100.00;100846.09;4934773;29;20638;-72
2023/01/04 11:25:02;;;;;;;2.67;1.60;;;;;;;5.24;100.00;100838.31;4937001;29;20198;-72
2023/01/04 11:27:31;;;;;;;4.73;2.87;;;;;;;5.29;100.00;100828.81;4932167;29;20671;-72
2023/01/04 11:30:02;;;;;;;1.60;1.40;;;;;;;5.33;100.00;100825.41;4932275;29;20211;-73
2023/01/04 11:32:38;;;;;;;2.17;1.80;;;;;;;5.37;100.00;100821.94;4936373;29;20660;-73
2023/01/04 11:35:06;;;;;;;2.53;1.63;;;;;;;5.41;100.00;100822.78;4940687;29;20552;-73
2023/01/04 11:37:34;;;;;;;2.13;1.40;;;;;;;5.43;100.00;100821.91;4937174;29;20222;-73
2023/01/04 11:40:21;;;;;;;1.00;1.00;;;;;;;5.46;100.00;100821.91;4936592;28;20317;-73
2023/01/04 11:42:50;;;;;;;0.93;0.90;;;;;;;5.49;100.00;100823.66;4935392;29;20297;-73
2023/01/04 11:45:22;;;;;;;1.40;0.90;;;;;;;5.55;100.00;100815.00;4938518;29;20221;-73
2023/01/04 11:47:50;;;;;;;1.30;1.00;;;;;;;5.61;100.00;100810.69;4938225;28;20571;-73
2023/01/04 11:50:41;;;;;;;1.40;1.00;;;;;;;5.70;100.00;100809.78;4939515;28;20483;-73
2023/01/04 11:53:23;;;;;;;0.90;0.90;;;;;;;5.77;100.00;100815.78;4936449;29;20215;-72
2023/01/04 11:55:51;;;;;;;0.97;0.90;;;;;;;5.81;100.00;100812.34;4942716;29;20234;-72
2023/01/04 11:58:19;;;;;;;1.00;0.90;;;;;;;5.88;100.00;100799.34;4935068;29;20206;-72
2023/01/04 12:00:51;;;;;;;1.03;0.90;;;;;;;5.95;100.00;100809.72;4941120;29;20194;-73
2023/01/04 12:03:24;;;;;;;1.43;0.77;;;;;;;5.96;100.00;100796.78;4943216;29;20216;-72
2023/01/04 12:05:51;;;;;;;3.17;1.00;;;;;;;6.02;100.00;100785.53;4953186;28;20210;-75
2023/01/04 12:08:28;;;;;;;1.33;0.80;;;;;;;6.06;100.00;100776.88;4939396;29;20254;-75
2023/01/04 12:10:56;;;;;;;0.70;0.63;;;;;;;6.12;100.00;100779.47;4936888;29;20230;-72
2023/01/04 12:13:23;;;;;;;5.80;0.87;;;;;;;6.15;100.00;100768.22;4943397;29;20218;-72
2023/01/04 12:16:00;;;;;;;0.83;0.80;;;;;;;6.20;100.00;100766.47;4943395;28;20306;-72
2023/01/04 12:18:29;;;;;;;1.77;0.90;;;;;;;6.22;100.00;100775.06;4941797;29;20210;-73
2023/01/04 12:20:56;;;;;;;1.00;1.00;;;;;;;6.27;100.00;100762.97;4941301;29;20207;-72
2023/01/04 12:23:23;;;;;;;1.10;0.80;;;;;;;6.30;100.00;100762.06;4937743;29;20488;-73